sensor_id;sensor_type;location;lat;lon;timestamp;pressure;altitude;pressure_sealevel;temperature;humidity
81005;BME280;70472;47.592;17.640;2023-08-17T00:00:04;100076.38;;;19.51;90.49
81005;BME280;70472;47.592;17.640;2023-08-17T00:00:36;100078.03;;;19.52;90.18
81005;BME280;70472;47.592;17.640;2023-08-17T00:01:09;100070.47;;;19.54;89.65
81005;BME280;70472;47.592;17.640;2023-08-17T00:01:42;100074.84;;;19.55;91.00
81005;BME280;70472;47.592;17.640;2023-08-17T00:02:14;100071.72;;;19.58;90.28
81005;BME280;70472;47.592;17.640;2023-08-17T00:02:46;100071.31;;;19.55;90.44
81005;BME280;70472;47.592;17.640;2023-08-17T00:03:19;100079.03;;;19.58;91.09
81005;BME280;70472;47.592;17.640;2023-08-17T00:03:51;100073.19;;;19.54;91.21
81005;BME280;70472;47.592;17.640;2023-08-17T00:04:24;100070.69;;;19.53;90.55
81005;BME280;70472;47.592;17.640;2023-08-17T00:04:56;100072.13;;;19.55;91.62
81005;BME280;70472;47.592;17.640;2023-08-17T00:05:28;100072.81;;;19.51;91.28
81005;BME280;70472;47.592;17.640;2023-08-17T00:06:01;100072.59;;;19.52;91.48
81005;BME280;70472;47.592;17.640;2023-08-17T00:06:34;100070.47;;;19.54;90.55
81005;BME280;70472;47.592;17.640;2023-08-17T00:07:06;100070.06;;;19.51;90.90
81005;BME280;70472;47.592;17.640;2023-08-17T00:07:39;100069.25;;;19.50;89.95
81005;BME280;70472;47.592;17.640;2023-08-17T00:08:11;100069.72;;;19.47;90.08
81005;BME280;70472;47.592;17.640;2023-08-17T00:08:44;100064.72;;;19.44;89.79
81005;BME280;70472;47.592;17.640;2023-08-17T00:09:16;100071.22;;;19.43;89.84
81005;BME280;70472;47.592;17.640;2023-08-17T00:09:49;100069.88;;;19.34;90.29
81005;BME280;70472;47.592;17.640;2023-08-17T00:10:21;100070.69;;;19.34;90.89
81005;BME280;70472;47.592;17.640;2023-08-17T00:10:53;100070.91;;;19.33;91.23
81005;BME280;70472;47.592;17.640;2023-08-17T00:11:26;100074.47;;;19.33;91.07
81005;BME280;70472;47.592;17.640;2023-08-17T00:11:58;100072.19;;;19.30;90.29
81005;BME280;70472;47.592;17.640;2023-08-17T00:12:31;100073.69;;;19.26;90.34
81005;BME280;70472;47.592;17.640;2023-08-17T00:13:03;100074.09;;;19.30;90.61
81005;BME280;70472;47.592;17.640;2023-08-17T00:13:36;100073.63;;;19.33;91.56
81005;BME280;70472;47.592;17.640;2023-08-17T00:14:08;100068.03;;;19.28;90.69
81005;BME280;70472;47.592;17.640;2023-08-17T00:14:41;100074.97;;;19.24;90.48
81005;BME280;70472;47.592;17.640;2023-08-17T00:15:13;100073.50;;;19.28;91.63
81005;BME280;70472;47.592;17.640;2023-08-17T00:15:45;100072.03;;;19.25;92.18
81005;BME280;70472;47.592;17.640;2023-08-17T00:16:18;100072.50;;;19.22;91.26
81005;BME280;70472;47.592;17.640;2023-08-17T00:16:51;100073.31;;;19.23;91.60
81005;BME280;70472;47.592;17.640;2023-08-17T00:17:23;100072.84;;;19.26;90.94
81005;BME280;70472;47.592;17.640;2023-08-17T00:17:56;100071.66;;;19.21;91.17
81005;BME280;70472;47.592;17.640;2023-08-17T00:18:28;100072.69;;;19.20;90.75
81005;BME280;70472;47.592;17.640;2023-08-17T00:19:00;100073.31;;;19.23;91.42
81005;BME280;70472;47.592;17.640;2023-08-17T00:19:33;100075.81;;;19.24;91.73
81005;BME280;70472;47.592;17.640;2023-08-17T00:20:06;100081.00;;;19.26;91.37
81005;BME280;70472;47.592;17.640;2023-08-17T00:20:39;100070.59;;;19.23;92.03
81005;BME280;70472;47.592;17.640;2023-08-17T00:21:11;100072.84;;;19.26;90.67
81005;BME280;70472;47.592;17.640;2023-08-17T00:21:45;100074.97;;;19.24;91.58
81005;BME280;70472;47.592;17.640;2023-08-17T00:22:17;100074.16;;;19.23;90.76
81005;BME280;70472;47.592;17.640;2023-08-17T00:22:49;100067.25;;;19.20;91.03
81005;BME280;70472;47.592;17.640;2023-08-17T00:23:22;100066.66;;;19.18;91.42
81005;BME280;70472;47.592;17.640;2023-08-17T00:23:54;100063.53;;;19.15;92.09
81005;BME280;70472;47.592;17.640;2023-08-17T00:24:27;100073.88;;;19.06;90.97
81005;BME280;70472;47.592;17.640;2023-08-17T00:24:59;100065.13;;;19.04;91.64
81005;BME280;70472;47.592;17.640;2023-08-17T00:25:31;100066.97;;;19.10;90.83
81005;BME280;70472;47.592;17.640;2023-08-17T00:26:04;100070.28;;;19.12;90.89
81005;BME280;70472;47.592;17.640;2023-08-17T00:26:37;100065.91;;;19.11;90.96
81005;BME280;70472;47.592;17.640;2023-08-17T00:27:09;100063.59;;;19.08;91.96
81005;BME280;70472;47.592;17.640;2023-08-17T00:27:42;100061.13;;;19.07;91.63
81005;BME280;70472;47.592;17.640;2023-08-17T00:28:14;100065.97;;;19.05;91.97
81005;BME280;70472;47.592;17.640;2023-08-17T00:28:47;100065.34;;;19.03;91.44
81005;BME280;70472;47.592;17.640;2023-08-17T00:29:20;100060.41;;;18.93;91.96
81005;BME280;70472;47.592;17.640;2023-08-17T00:29:52;100066.28;;;18.90;92.09
81005;BME280;70472;47.592;17.640;2023-08-17T00:30:24;100062.78;;;18.83;91.39
81005;BME280;70472;47.592;17.640;2023-08-17T00:30:57;100058.59;;;18.87;91.48
81005;BME280;70472;47.592;17.640;2023-08-17T00:31:29;100056.31;;;18.84;92.63
81005;BME280;70472;47.592;17.640;2023-08-17T00:32:03;100057.53;;;18.88;91.48
81005;BME280;70472;47.592;17.640;2023-08-17T00:32:35;100053.97;;;18.87;92.53
81005;BME280;70472;47.592;17.640;2023-08-17T00:33:08;100051.50;;;18.86;92.56
81005;BME280;70472;47.592;17.640;2023-08-17T00:33:40;100054.88;;;18.81;91.60
81005;BME280;70472;47.592;17.640;2023-08-17T00:34:12;100049.66;;;18.80;92.16
81005;BME280;70472;47.592;17.640;2023-08-17T00:34:45;100052.31;;;18.86;91.37
81005;BME280;70472;47.592;17.640;2023-08-17T00:35:17;100059.41;;;18.87;92.59
81005;BME280;70472;47.592;17.640;2023-08-17T00:35:50;100049.81;;;18.85;91.63
81005;BME280;70472;47.592;17.640;2023-08-17T00:36:23;100055.69;;;18.82;91.11
81005;BME280;70472;47.592;17.640;2023-08-17T00:36:55;100056.97;;;18.79;91.32
81005;BME280;70472;47.592;17.640;2023-08-17T00:37:28;100056.13;;;18.79;92.89
81005;BME280;70472;47.592;17.640;2023-08-17T00:38:00;100054.88;;;18.81;91.77
81005;BME280;70472;47.592;17.640;2023-08-17T00:38:32;100055.25;;;18.85;92.52
81005;BME280;70472;47.592;17.640;2023-08-17T00:39:05;100056.06;;;18.85;92.30
81005;BME280;70472;47.592;17.640;2023-08-17T00:39:37;100062.38;;;18.86;92.77
81005;BME280;70472;47.592;17.640;2023-08-17T00:40:10;100054.66;;;18.83;92.19
81005;BME280;70472;47.592;17.640;2023-08-17T00:40:43;100053.59;;;18.84;92.09
81005;BME280;70472;47.592;17.640;2023-08-17T00:41:15;100052.38;;;18.80;91.80
81005;BME280;70472;47.592;17.640;2023-08-17T00:41:47;100058.84;;;18.79;93.08
81005;BME280;70472;47.592;17.640;2023-08-17T00:42:20;100063.25;;;18.80;91.72
81005;BME280;70472;47.592;17.640;2023-08-17T00:42:52;100063.28;;;18.73;92.14
81005;BME280;70472;47.592;17.640;2023-08-17T00:43:24;100053.69;;;18.71;93.08
81005;BME280;70472;47.592;17.640;2023-08-17T00:43:57;100058.25;;;18.77;92.81
81005;BME280;70472;47.592;17.640;2023-08-17T00:44:29;100051.97;;;18.76;93.28
81005;BME280;70472;47.592;17.640;2023-08-17T00:45:02;100062.41;;;18.79;92.52
81005;BME280;70472;47.592;17.640;2023-08-17T00:45:35;100059.91;;;18.78;92.82
81005;BME280;70472;47.592;17.640;2023-08-17T00:46:08;100058.66;;;18.80;92.68
81005;BME280;70472;47.592;17.640;2023-08-17T00:46:40;100060.91;;;18.83;92.70
81005;BME280;70472;47.592;17.640;2023-08-17T00:47:14;100058.84;;;18.79;91.46
81005;BME280;70472;47.592;17.640;2023-08-17T00:47:47;100053.03;;;18.75;92.97
81005;BME280;70472;47.592;17.640;2023-08-17T00:48:20;100054.53;;;18.71;93.17
81005;BME280;70472;47.592;17.640;2023-08-17T00:48:52;100056.84;;;18.67;92.63
81005;BME280;70472;47.592;17.640;2023-08-17T00:49:25;100056.00;;;18.67;92.33
81005;BME280;70472;47.592;17.640;2023-08-17T00:49:58;100052.41;;;18.73;93.99
81005;BME280;70472;47.592;17.640;2023-08-17T00:50:32;100055.59;;;18.70;93.14
81005;BME280;70472;47.592;17.640;2023-08-17T00:51:05;100054.75;;;18.70;92.20
81005;BME280;70472;47.592;17.640;2023-08-17T00:51:38;100052.44;;;18.66;92.50
81005;BME280;70472;47.592;17.640;2023-08-17T00:52:11;100054.28;;;18.73;93.18
81005;BME280;70472;47.592;17.640;2023-08-17T00:52:43;100050.31;;;18.75;92.58
81005;BME280;70472;47.592;17.640;2023-08-17T00:53:17;100052.63;;;18.72;93.51
81005;BME280;70472;47.592;17.640;2023-08-17T00:53:51;100053.47;;;18.72;93.84
81005;BME280;70472;47.592;17.640;2023-08-17T00:54:27;100054.56;;;18.64;93.37
81005;BME280;70472;47.592;17.640;2023-08-17T00:55:03;100049.78;;;18.60;92.60
81005;BME280;70472;47.592;17.640;2023-08-17T00:55:36;100045.56;;;18.64;92.74
81005;BME280;70472;47.592;17.640;2023-08-17T00:56:08;100049.13;;;18.64;93.12
81005;BME280;70472;47.592;17.640;2023-08-17T00:56:41;100050.41;;;18.62;93.71
81005;BME280;70472;47.592;17.640;2023-08-17T00:57:14;100052.50;;;18.60;93.38
81005;BME280;70472;47.592;17.640;2023-08-17T00:57:47;100050.88;;;18.52;92.55
81005;BME280;70472;47.592;17.640;2023-08-17T00:58:21;100053.00;;;18.50;93.74
81005;BME280;70472;47.592;17.640;2023-08-17T00:58:54;100056.69;;;18.56;93.47
81005;BME280;70472;47.592;17.640;2023-08-17T00:59:27;100053.59;;;18.52;93.31
81005;BME280;70472;47.592;17.640;2023-08-17T01:00:05;100054.66;;;18.51;93.33
81005;BME280;70472;47.592;17.640;2023-08-17T01:00:40;100059.25;;;18.51;93.54
81005;BME280;70472;47.592;17.640;2023-08-17T01:01:12;100054.66;;;18.51;92.48
81005;BME280;70472;47.592;17.640;2023-08-17T01:01:46;100052.59;;;18.47;92.14
81005;BME280;70472;47.592;17.640;2023-08-17T01:02:19;100049.41;;;18.50;91.97
81005;BME280;70472;47.592;17.640;2023-08-17T01:02:53;100055.91;;;18.49;92.53
81005;BME280;70472;47.592;17.640;2023-08-17T01:03:28;100054.94;;;18.36;93.36
81005;BME280;70472;47.592;17.640;2023-08-17T01:04:01;100056.41;;;18.39;92.30
81005;BME280;70472;47.592;17.640;2023-08-17T01:04:35;100054.47;;;18.46;92.62
81005;BME280;70472;47.592;17.640;2023-08-17T01:05:08;100052.19;;;18.43;92.79
81005;BME280;70472;47.592;17.640;2023-08-17T01:05:40;100055.31;;;18.47;93.34
81005;BME280;70472;47.592;17.640;2023-08-17T01:06:12;100050.88;;;18.52;92.85
81005;BME280;70472;47.592;17.640;2023-08-17T01:06:45;100054.19;;;18.54;92.86
81005;BME280;70472;47.592;17.640;2023-08-17T01:07:17;100047.94;;;18.54;93.05
81005;BME280;70472;47.592;17.640;2023-08-17T01:07:50;100049.16;;;18.58;93.58
81005;BME280;70472;47.592;17.640;2023-08-17T01:08:22;100051.75;;;18.46;92.11
81005;BME280;70472;47.592;17.640;2023-08-17T01:08:55;100050.97;;;18.39;92.34
81005;BME280;70472;47.592;17.640;2023-08-17T01:09:27;100053.94;;;18.31;92.75
81005;BME280;70472;47.592;17.640;2023-08-17T01:10:02;100045.97;;;18.36;92.98
81005;BME280;70472;47.592;17.640;2023-08-17T01:11:53;100046.81;;;18.36;93.24
81005;BME280;70472;47.592;17.640;2023-08-17T01:12:48;100047.63;;;18.37;93.12
81005;BME280;70472;47.592;17.640;2023-08-17T01:13:38;100047.63;;;18.37;92.21
81005;BME280;70472;47.592;17.640;2023-08-17T01:15:18;100052.88;;;18.38;92.12
81005;BME280;70472;47.592;17.640;2023-08-17T01:15:57;100047.63;;;18.37;92.64
81005;BME280;70472;47.592;17.640;2023-08-17T01:17:00;100045.59;;;18.32;92.44
81005;BME280;70472;47.592;17.640;2023-08-17T01:17:44;100046.84;;;18.30;92.31
81005;BME280;70472;47.592;17.640;2023-08-17T01:18:29;100045.78;;;18.31;92.59
81005;BME280;70472;47.592;17.640;2023-08-17T01:19:08;100048.91;;;18.34;93.65
81005;BME280;70472;47.592;17.640;2023-08-17T01:19:43;100049.16;;;18.33;91.99
81005;BME280;70472;47.592;17.640;2023-08-17T01:20:16;100046.25;;;18.28;92.38
81005;BME280;70472;47.592;17.640;2023-08-17T01:20:53;100048.97;;;18.28;92.49
81005;BME280;70472;47.592;17.640;2023-08-17T01:21:35;100051.84;;;18.33;92.60
81005;BME280;70472;47.592;17.640;2023-08-17T01:22:14;100050.16;;;18.32;93.71
81005;BME280;70472;47.592;17.640;2023-08-17T01:22:51;100053.09;;;18.30;92.68
81005;BME280;70472;47.592;17.640;2023-08-17T01:23:24;100049.75;;;18.35;92.78
81005;BME280;70472;47.592;17.640;2023-08-17T01:23:58;100052.63;;;18.40;93.79
81005;BME280;70472;47.592;17.640;2023-08-17T01:24:32;100052.41;;;18.41;93.13
81005;BME280;70472;47.592;17.640;2023-08-17T01:25:04;100053.00;;;18.43;93.32
81005;BME280;70472;47.592;17.640;2023-08-17T01:25:37;100052.19;;;18.43;94.02
81005;BME280;70472;47.592;17.640;2023-08-17T01:26:09;100058.69;;;18.42;93.24
81005;BME280;70472;47.592;17.640;2023-08-17T01:26:42;100056.41;;;18.39;93.79
81005;BME280;70472;47.592;17.640;2023-08-17T01:27:14;100049.94;;;18.40;92.63
81005;BME280;70472;47.592;17.640;2023-08-17T01:27:46;100057.44;;;18.38;93.22
81005;BME280;70472;47.592;17.640;2023-08-17T01:28:19;100055.59;;;18.38;93.00
81005;BME280;70472;47.592;17.640;2023-08-17T01:28:52;100048.47;;;18.37;93.08
81005;BME280;70472;47.592;17.640;2023-08-17T01:29:25;100054.53;;;18.39;92.70
81005;BME280;70472;47.592;17.640;2023-08-17T01:29:57;100049.09;;;18.39;93.19
81005;BME280;70472;47.592;17.640;2023-08-17T01:30:47;100042.59;;;18.40;92.71
81005;BME280;70472;47.592;17.640;2023-08-17T01:31:31;100040.50;;;18.42;93.42
81005;BME280;70472;47.592;17.640;2023-08-17T01:32:26;100047.59;;;18.43;92.43
81005;BME280;70472;47.592;17.640;2023-08-17T01:33:08;100050.53;;;18.42;92.90
81005;BME280;70472;47.592;17.640;2023-08-17T01:33:56;100045.09;;;18.42;92.73
81005;BME280;70472;47.592;17.640;2023-08-17T01:34:39;100045.72;;;18.44;92.77
81005;BME280;70472;47.592;17.640;2023-08-17T01:36:30;100047.63;;;18.37;92.97
81005;BME280;70472;47.592;17.640;2023-08-17T01:37:07;100051.41;;;18.36;92.82
81005;BME280;70472;47.592;17.640;2023-08-17T01:37:43;100044.09;;;18.36;92.81
81005;BME280;70472;47.592;17.640;2023-08-17T01:38:18;100041.59;;;18.35;93.43
81005;BME280;70472;47.592;17.640;2023-08-17T01:38:56;100044.50;;;18.40;92.33
81005;BME280;70472;47.592;17.640;2023-08-17T01:39:37;100047.22;;;18.40;93.34
81005;BME280;70472;47.592;17.640;2023-08-17T01:40:13;100045.31;;;18.40;91.84
81005;BME280;70472;47.592;17.640;2023-08-17T01:40:50;100040.72;;;18.41;91.52
81005;BME280;70472;47.592;17.640;2023-08-17T01:41:25;100046.75;;;18.43;91.76
81005;BME280;70472;47.592;17.640;2023-08-17T01:41:58;100036.94;;;18.42;91.42
81005;BME280;70472;47.592;17.640;2023-08-17T01:42:33;100043.22;;;18.42;92.40
81005;BME280;70472;47.592;17.640;2023-08-17T01:43:06;100037.78;;;18.42;91.31
81005;BME280;70472;47.592;17.640;2023-08-17T01:43:42;100040.13;;;18.39;92.29
81005;BME280;70472;47.592;17.640;2023-08-17T01:44:15;100047.22;;;18.40;92.24
81005;BME280;70472;47.592;17.640;2023-08-17T01:44:49;100041.78;;;18.40;91.52
81005;BME280;70472;47.592;17.640;2023-08-17T01:45:22;100038.00;;;18.41;91.61
81005;BME280;70472;47.592;17.640;2023-08-17T01:45:55;100036.16;;;18.35;91.51
81005;BME280;70472;47.592;17.640;2023-08-17T01:46:32;100038.06;;;18.34;91.29
81005;BME280;70472;47.592;17.640;2023-08-17T01:47:05;100044.53;;;18.33;92.22
81005;BME280;70472;47.592;17.640;2023-08-17T01:47:37;100039.31;;;18.32;91.89
81005;BME280;70472;47.592;17.640;2023-08-17T01:48:11;100041.00;;;18.33;92.16
81005;BME280;70472;47.592;17.640;2023-08-17T01:48:45;100039.97;;;18.27;91.68
81005;BME280;70472;47.592;17.640;2023-08-17T01:49:18;100040.81;;;18.28;92.11
81005;BME280;70472;47.592;17.640;2023-08-17T01:49:51;100043.13;;;18.24;92.02
81005;BME280;70472;47.592;17.640;2023-08-17T01:50:23;100041.88;;;18.27;92.01
81005;BME280;70472;47.592;17.640;2023-08-17T01:50:55;100037.88;;;18.29;91.82
81005;BME280;70472;47.592;17.640;2023-08-17T01:51:28;100043.94;;;18.25;91.50
81005;BME280;70472;47.592;17.640;2023-08-17T01:52:00;100041.47;;;18.23;91.97
81005;BME280;70472;47.592;17.640;2023-08-17T01:52:33;100042.53;;;18.22;92.15
81005;BME280;70472;47.592;17.640;2023-08-17T01:53:05;100035.19;;;18.23;92.44
81005;BME280;70472;47.592;17.640;2023-08-17T01:53:38;100039.56;;;18.24;91.77
81005;BME280;70472;47.592;17.640;2023-08-17T01:54:10;100043.94;;;18.25;91.62
81005;BME280;70472;47.592;17.640;2023-08-17T01:54:42;100040.19;;;18.26;92.26
81005;BME280;70472;47.592;17.640;2023-08-17T01:55:17;100038.53;;;18.25;92.10
81005;BME280;70472;47.592;17.640;2023-08-17T01:55:49;100041.47;;;18.23;91.79
81005;BME280;70472;47.592;17.640;2023-08-17T01:56:23;100041.25;;;18.25;91.96
81005;BME280;70472;47.592;17.640;2023-08-17T01:56:55;100036.63;;;18.25;91.88
81005;BME280;70472;47.592;17.640;2023-08-17T01:57:27;100030.81;;;18.22;91.80
81005;BME280;70472;47.592;17.640;2023-08-17T01:58:00;100043.34;;;18.23;91.60
81005;BME280;70472;47.592;17.640;2023-08-17T01:58:32;100038.78;;;18.17;91.89
81005;BME280;70472;47.592;17.640;2023-08-17T01:59:05;100038.19;;;18.14;92.64
81005;BME280;70472;47.592;17.640;2023-08-17T01:59:37;100038.78;;;18.17;92.68
81005;BME280;70472;47.592;17.640;2023-08-17T02:00:10;100037.72;;;18.18;92.80
81005;BME280;70472;47.592;17.640;2023-08-17T02:00:45;100038.19;;;18.14;92.01
81005;BME280;70472;47.592;17.640;2023-08-17T02:01:18;100038.34;;;18.20;91.81
81005;BME280;70472;47.592;17.640;2023-08-17T02:01:50;100035.63;;;18.20;91.70
81005;BME280;70472;47.592;17.640;2023-08-17T02:02:23;100039.41;;;18.19;92.03
81005;BME280;70472;47.592;17.640;2023-08-17T02:02:55;100038.56;;;18.18;92.06
81005;BME280;70472;47.592;17.640;2023-08-17T02:03:29;100046.94;;;18.17;91.66
81005;BME280;70472;47.592;17.640;2023-08-17T02:04:01;100046.34;;;18.14;92.89
81005;BME280;70472;47.592;17.640;2023-08-17T02:04:35;100046.53;;;18.13;93.20
81005;BME280;70472;47.592;17.640;2023-08-17T02:05:08;100038.19;;;18.14;93.15
81005;BME280;70472;47.592;17.640;2023-08-17T02:05:46;100039.84;;;18.15;92.42
81005;BME280;70472;47.592;17.640;2023-08-17T02:06:19;100035.03;;;18.18;92.34
81005;BME280;70472;47.592;17.640;2023-08-17T02:06:52;100039.84;;;18.15;92.81
81005;BME280;70472;47.592;17.640;2023-08-17T02:07:24;100033.13;;;18.18;92.04
81005;BME280;70472;47.592;17.640;2023-08-17T02:07:56;100033.13;;;18.18;91.89
81005;BME280;70472;47.592;17.640;2023-08-17T02:08:34;100038.34;;;18.20;92.35
81005;BME280;70472;47.592;17.640;2023-08-17T02:09:06;100036.06;;;18.17;92.30
81005;BME280;70472;47.592;17.640;2023-08-17T02:09:38;100034.41;;;18.15;91.66
81005;BME280;70472;47.592;17.640;2023-08-17T02:10:11;100030.66;;;18.17;91.70
81005;BME280;70472;47.592;17.640;2023-08-17T02:10:43;100032.75;;;18.14;91.58
81005;BME280;70472;47.592;17.640;2023-08-17T02:11:15;100032.34;;;18.11;91.60
81005;BME280;70472;47.592;17.640;2023-08-17T02:11:49;100027.97;;;18.10;92.45
81005;BME280;70472;47.592;17.640;2023-08-17T02:12:21;100033.19;;;18.11;92.57
81005;BME280;70472;47.592;17.640;2023-08-17T02:12:53;100027.75;;;18.11;92.37
81005;BME280;70472;47.592;17.640;2023-08-17T02:13:30;100034.41;;;18.15;93.03
81005;BME280;70472;47.592;17.640;2023-08-17T02:14:07;100034.78;;;18.19;91.50
81005;BME280;70472;47.592;17.640;2023-08-17T02:14:40;100032.72;;;18.21;92.43
81005;BME280;70472;47.592;17.640;2023-08-17T02:15:12;100032.06;;;18.19;91.25
81005;BME280;70472;47.592;17.640;2023-08-17T02:15:47;100037.09;;;18.22;92.15
81005;BME280;70472;47.592;17.640;2023-08-17T02:16:19;100038.53;;;18.25;91.09
81005;BME280;70472;47.592;17.640;2023-08-17T02:16:52;100032.03;;;18.26;90.63
81005;BME280;70472;47.592;17.640;2023-08-17T02:17:25;100031.84;;;18.27;91.33
81005;BME280;70472;47.592;17.640;2023-08-17T02:18:00;100032.91;;;18.26;90.83
81005;BME280;70472;47.592;17.640;2023-08-17T02:18:33;100031.59;;;18.29;90.33
81005;BME280;70472;47.592;17.640;2023-08-17T02:19:05;100035.59;;;18.26;90.97
81005;BME280;70472;47.592;17.640;2023-08-17T02:19:38;100038.09;;;18.28;90.93
81005;BME280;70472;47.592;17.640;2023-08-17T02:20:11;100029.31;;;18.26;90.29
81005;BME280;70472;47.592;17.640;2023-08-17T02:20:43;100033.31;;;18.23;91.42
81005;BME280;70472;47.592;17.640;2023-08-17T02:21:16;100029.31;;;18.26;91.22
81005;BME280;70472;47.592;17.640;2023-08-17T02:21:48;100029.78;;;18.23;90.82
81005;BME280;70472;47.592;17.640;2023-08-17T02:22:20;100027.47;;;18.20;90.45
81005;BME280;70472;47.592;17.640;2023-08-17T02:22:53;100026.44;;;18.21;91.79
81005;BME280;70472;47.592;17.640;2023-08-17T02:23:25;100024.34;;;18.23;91.82
81005;BME280;70472;47.592;17.640;2023-08-17T02:23:57;100032.25;;;18.24;90.51
81005;BME280;70472;47.592;17.640;2023-08-17T02:24:30;100031.88;;;18.21;90.87
81005;BME280;70472;47.592;17.640;2023-08-17T02:25:02;100025.88;;;18.12;91.96
81005;BME280;70472;47.592;17.640;2023-08-17T02:25:41;100027.75;;;18.11;91.75
81005;BME280;70472;47.592;17.640;2023-08-17T02:26:13;100020.66;;;18.10;91.98
81005;BME280;70472;47.592;17.640;2023-08-17T02:26:45;100029.41;;;18.12;90.83
81005;BME280;70472;47.592;17.640;2023-08-17T02:27:18;100025.03;;;18.11;90.79
81005;BME280;70472;47.592;17.640;2023-08-17T02:27:50;100028.56;;;18.12;91.12
81005;BME280;70472;47.592;17.640;2023-08-17T02:28:22;100023.56;;;18.15;91.05
81005;BME280;70472;47.592;17.640;2023-08-17T02:28:55;100024.81;;;18.13;91.09
81005;BME280;70472;47.592;17.640;2023-08-17T02:29:29;100024.44;;;18.09;91.14
81005;BME280;70472;47.592;17.640;2023-08-17T02:30:02;100025.03;;;18.11;91.80
81005;BME280;70472;47.592;17.640;2023-08-17T02:30:35;100021.09;;;18.07;91.87
81005;BME280;70472;47.592;17.640;2023-08-17T02:31:07;100026.09;;;18.10;91.07
81005;BME280;70472;47.592;17.640;2023-08-17T02:31:40;100024.63;;;18.08;92.26
81005;BME280;70472;47.592;17.640;2023-08-17T02:32:12;100022.75;;;18.08;92.54
81005;BME280;70472;47.592;17.640;2023-08-17T02:32:45;100028.41;;;18.07;92.63
81005;BME280;70472;47.592;17.640;2023-08-17T02:33:17;100027.34;;;18.08;91.89
81005;BME280;70472;47.592;17.640;2023-08-17T02:33:49;100029.22;;;18.07;91.46
81005;BME280;70472;47.592;17.640;2023-08-17T02:34:22;100026.50;;;18.07;91.78
81005;BME280;70472;47.592;17.640;2023-08-17T02:34:54;100020.47;;;18.05;91.29
81005;BME280;70472;47.592;17.640;2023-08-17T02:35:27;100025.69;;;18.07;91.96
81005;BME280;70472;47.592;17.640;2023-08-17T02:35:59;100025.03;;;18.11;91.44
81005;BME280;70472;47.592;17.640;2023-08-17T02:36:32;100019.00;;;18.09;91.37
81005;BME280;70472;47.592;17.640;2023-08-17T02:37:05;100027.97;;;18.10;91.82
81005;BME280;70472;47.592;17.640;2023-08-17T02:37:37;100026.31;;;18.09;91.75
81005;BME280;70472;47.592;17.640;2023-08-17T02:38:09;100026.50;;;18.07;91.13
81005;BME280;70472;47.592;17.640;2023-08-17T02:38:42;100022.38;;;18.05;90.72
81005;BME280;70472;47.592;17.640;2023-08-17T02:39:14;100022.97;;;18.07;91.85
81005;BME280;70472;47.592;17.640;2023-08-17T02:39:47;100021.09;;;18.07;91.26
81005;BME280;70472;47.592;17.640;2023-08-17T02:40:19;100031.56;;;18.04;91.74
81005;BME280;70472;47.592;17.640;2023-08-17T02:40:51;100030.72;;;18.03;91.07
81005;BME280;70472;47.592;17.640;2023-08-17T02:41:24;100024.63;;;18.08;91.80
81005;BME280;70472;47.592;17.640;2023-08-17T02:41:57;100026.09;;;18.10;91.31
81005;BME280;70472;47.592;17.640;2023-08-17T02:42:29;100028.16;;;18.15;91.76
81005;BME280;70472;47.592;17.640;2023-08-17T02:43:02;100024.81;;;18.13;90.81
81005;BME280;70472;47.592;17.640;2023-08-17T02:43:34;100015.59;;;18.14;90.87
81005;BME280;70472;47.592;17.640;2023-08-17T02:44:07;100027.75;;;18.11;90.96
81005;BME280;70472;47.592;17.640;2023-08-17T02:44:39;100021.50;;;18.11;92.32
81005;BME280;70472;47.592;17.640;2023-08-17T02:45:11;100027.31;;;18.14;91.55
81005;BME280;70472;47.592;17.640;2023-08-17T02:45:44;100023.56;;;18.15;91.10
81005;BME280;70472;47.592;17.640;2023-08-17T02:46:16;100023.97;;;18.12;91.97
81005;BME280;70472;47.592;17.640;2023-08-17T02:46:49;100019.66;;;18.05;90.83
81005;BME280;70472;47.592;17.640;2023-08-17T02:47:21;100014.44;;;18.03;91.46
81005;BME280;70472;47.592;17.640;2023-08-17T02:47:53;100020.69;;;18.04;91.93
81005;BME280;70472;47.592;17.640;2023-08-17T02:48:26;100011.53;;;17.98;91.29
81005;BME280;70472;47.592;17.640;2023-08-17T02:48:58;100024.09;;;17.93;92.08
81005;BME280;70472;47.592;17.640;2023-08-17T02:49:31;100022.44;;;17.92;92.03
81005;BME280;70472;47.592;17.640;2023-08-17T02:50:04;100028.25;;;17.95;92.21
81005;BME280;70472;47.592;17.640;2023-08-17T02:50:37;100017.38;;;17.95;91.35
81005;BME280;70472;47.592;17.640;2023-08-17T02:51:10;100021.38;;;17.93;92.32
81005;BME280;70472;47.592;17.640;2023-08-17T02:51:42;100024.56;;;17.83;92.87
81005;BME280;70472;47.592;17.640;2023-08-17T02:52:14;100024.31;;;17.84;92.67
81005;BME280;70472;47.592;17.640;2023-08-17T02:52:47;100016.59;;;17.88;92.60
81005;BME280;70472;47.592;17.640;2023-08-17T02:53:19;100026.19;;;17.91;92.20
81005;BME280;70472;47.592;17.640;2023-08-17T02:53:52;100020.97;;;17.89;93.02
81005;BME280;70472;47.592;17.640;2023-08-17T02:54:24;100019.91;;;17.90;92.30
81005;BME280;70472;47.592;17.640;2023-08-17T02:54:57;100020.34;;;17.94;93.06
81005;BME280;70472;47.592;17.640;2023-08-17T02:55:29;100020.56;;;17.92;91.87
81005;BME280;70472;47.592;17.640;2023-08-17T02:56:01;100019.06;;;17.96;91.47
81005;BME280;70472;47.592;17.640;2023-08-17T02:56:34;100025.72;;;18.00;92.29
81005;BME280;70472;47.592;17.640;2023-08-17T02:57:06;100025.72;;;18.00;91.65